Time;durP1;ratioP1;P1;durP2;ratioP2;P2;SDS_P1;SDS_P2;PMS_P1;PMS_P2;Temp;Humidity;BMP_temperature;BMP_pressure;BME280_temperature;BME280_humidity;BME280_pressure;Samples;Min_cycle;Max_cycle;Signal;HPM_P1;HPM_P2
2023/06/01 00:00:55;;;;;;;5.60;5.20;;;;;;;12.56;100.00;96088.56;5118934;27;20042;-66
2023/06/01 00:03:21;;;;;;;5.70;5.20;;;;;;;12.58;100.00;96088.38;5121698;27;20026;-66
2023/06/01 00:05:46;;;;;;;6.10;5.50;;;;;;;12.54;100.00;96094.94;5123918;27;20011;-66
2023/06/01 00:08:12;;;;;;;5.65;5.25;;;;;;;12.44;100.00;96090.53;5130198;27;20549;-66
2023/06/01 00:10:37;;;;;;;6.43;4.80;;;;;;;12.51;100.00;96096.06;5121143;27;20506;-66
2023/06/01 00:13:03;;;;;;;5.70;5.25;;;;;;;12.56;100.00;96088.56;5131686;27;20431;-66
2023/06/01 00:15:28;;;;;;;6.93;5.35;;;;;;;12.57;100.00;96095.50;5117429;27;20011;-65
2023/06/01 00:17:53;;;;;;;7.40;5.47;;;;;;;12.55;100.00;96100.09;5132978;27;20024;-66
2023/06/01 00:20:19;;;;;;;5.53;5.03;;;;;;;12.49;100.00;96097.19;5118942;27;20027;-66
2023/06/01 00:22:44;;;;;;;5.53;5.13;;;;;;;12.45;100.00;96102.75;5124356;27;20069;-66
2023/06/01 00:25:10;;;;;;;5.80;5.40;;;;;;;12.38;100.00;96095.56;5127725;27;20120;-66
2023/06/01 00:27:35;;;;;;;5.13;4.82;;;;;;;12.39;100.00;96097.22;5116843;27;20019;-66
2023/06/01 00:30:01;;;;;;;6.00;4.93;;;;;;;12.53;100.00;96102.03;5122249;27;20011;-66
2023/06/01 00:32:26;;;;;;;5.82;5.38;;;;;;;12.42;100.00;96094.28;5127877;27;20547;-66
2023/06/01 00:34:52;;;;;;;6.10;5.55;;;;;;;12.39;100.00;96094.56;5122399;27;20106;-66
2023/06/01 00:37:17;;;;;;;6.07;5.57;;;;;;;12.35;100.00;96093.19;5108599;27;20098;-66
2023/06/01 00:39:43;;;;;;;7.13;5.22;;;;;;;12.30;100.00;96086.53;5126371;27;20023;-66
2023/06/01 00:42:08;;;;;;;7.15;5.53;;;;;;;12.27;100.00;96084.19;5125968;27;20015;-66
2023/06/01 00:44:34;;;;;;;5.82;5.32;;;;;;;12.21;100.00;96094.50;5125879;27;20278;-66
2023/06/01 00:47:00;;;;;;;5.60;5.10;;;;;;;12.22;100.00;96089.06;5126562;27;20043;-66
2023/06/01 00:49:26;;;;;;;5.70;5.20;;;;;;;12.26;100.00;96098.34;5109020;27;20094;-66
2023/06/01 00:51:52;;;;;;;6.10;5.60;;;;;;;12.27;100.00;96094.75;5126810;27;20060;-66
2023/06/01 00:54:19;;;;;;;6.40;5.80;;;;;;;12.29;100.00;96092.81;5125475;27;20088;-66
2023/06/01 00:56:45;;;;;;;7.05;5.53;;;;;;;12.25;100.00;96098.50;5124627;27;20031;-66
2023/06/01 00:59:12;;;;;;;6.55;5.47;;;;;;;12.25;100.00;96096.69;5124385;27;20016;-66
2023/06/01 01:01:37;;;;;;;5.97;5.50;;;;;;;12.21;100.00;96099.75;5127323;27;20033;-66
2023/06/01 01:04:03;;;;;;;5.43;5.03;;;;;;;12.23;100.00;96103.09;5134008;27;20471;-66
2023/06/01 01:06:57;;;;;;;6.00;5.50;;;;;;;12.24;100.00;96097.66;5117919;27;20027;-66
2023/06/01 01:09:28;;;;;;;6.05;5.50;;;;;;;12.22;100.00;96099.59;5119159;27;20505;-66
2023/06/01 01:12:07;;;;;;;5.55;5.05;;;;;;;12.20;100.00;96100.75;5121473;27;20030;-66
2023/06/01 01:14:52;;;;;;;6.10;4.72;;;;;;;12.14;100.00;96100.31;5119386;27;20031;-66
2023/06/01 01:17:32;;;;;;;6.20;5.72;;;;;;;12.12;100.00;96102.25;5121807;27;20426;-66
2023/06/01 01:20:11;;;;;;;5.97;5.47;;;;;;;12.05;100.00;96090.63;5101205;27;20032;-66
2023/06/01 01:23:00;;;;;;;6.10;5.50;;;;;;;12.01;100.00;96097.16;5118938;27;20023;-66
2023/06/01 01:26:00;;;;;;;5.80;5.30;;;;;;;11.86;100.00;96097.53;5122307;27;20106;-66
2023/06/01 01:28:40;;;;;;;5.70;4.85;;;;;;;11.85;100.00;96100.34;5115977;27;20016;-66
2023/06/01 01:31:13;;;;;;;5.85;5.25;;;;;;;11.84;100.00;96099.50;5123137;27;20114;-66
2023/06/01 01:33:41;;;;;;;6.18;5.68;;;;;;;11.80;100.00;96094.63;5115855;27;20090;-66
2023/06/01 01:36:07;;;;;;;7.70;5.53;;;;;;;11.79;100.00;96083.25;5126231;27;20024;-66
2023/06/01 01:38:36;;;;;;;5.55;5.05;;;;;;;11.80;100.00;96081.44;5129434;27;20020;-66
2023/06/01 01:41:02;;;;;;;5.90;5.35;;;;;;;11.79;100.00;96080.63;5121610;27;20299;-66
2023/06/01 01:43:28;;;;;;;5.95;5.45;;;;;;;11.80;100.00;96070.88;5126687;27;20131;-66
2023/06/01 01:46:07;;;;;;;6.40;5.80;;;;;;;11.75;100.00;96069.50;5111534;27;20035;-66
2023/06/01 01:48:40;;;;;;;6.10;5.45;;;;;;;11.74;100.00;96065.22;5131577;27;20048;-66
2023/06/01 01:51:24;;;;;;;5.50;5.00;;;;;;;11.70;100.00;96065.63;5115521;27;20046;-66
2023/06/01 01:53:52;;;;;;;6.30;5.70;;;;;;;11.69;100.00;96059.53;5117855;27;20574;-66
2023/06/01 01:56:18;;;;;;;5.78;5.38;;;;;;;11.72;100.00;96058.44;5122591;27;20089;-66
2023/06/01 01:58:47;;;;;;;5.93;5.43;;;;;;;11.71;100.00;96051.44;5118402;27;20122;-66
2023/06/01 02:01:13;;;;;;;5.88;5.43;;;;;;;11.66;100.00;96051.06;5124557;27;20083;-67
2023/06/01 02:03:38;;;;;;;5.78;5.32;;;;;;;11.66;100.00;96054.53;5123053;27;20376;-66
2023/06/01 02:06:04;;;;;;;12.52;5.70;;;;;;;11.64;100.00;96056.47;5129505;27;20101;-66
2023/06/01 02:08:29;;;;;;;5.53;5.13;;;;;;;11.55;100.00;96052.88;5117119;27;20071;-66
2023/06/01 02:10:55;;;;;;;5.97;5.20;;;;;;;11.58;100.00;96046.47;5111964;27;20033;-66
2023/06/01 02:13:20;;;;;;;6.15;5.18;;;;;;;11.55;100.00;96042.31;5130303;27;20023;-66
2023/06/01 02:15:46;;;;;;;5.72;5.22;;;;;;;11.49;100.00;96052.59;5120423;27;20399;-66
2023/06/01 02:18:11;;;;;;;6.13;5.60;;;;;;;11.46;100.00;96049.25;5123651;27;20016;-66
2023/06/01 02:20:36;;;;;;;6.15;5.63;;;;;;;11.46;100.00;96049.25;5111465;27;20555;-66
2023/06/01 02:23:02;;;;;;;6.07;5.55;;;;;;;11.44;100.00;96050.34;5125212;27;20019;-65
2023/06/01 02:25:27;;;;;;;6.30;5.70;;;;;;;11.41;100.00;96048.84;5119110;27;20051;-66
2023/06/01 02:27:53;;;;;;;5.47;5.07;;;;;;;11.46;100.00;96049.25;5114909;27;20039;-66
2023/06/01 02:30:18;;;;;;;7.53;5.57;;;;;;;11.46;100.00;96048.41;5119707;27;20814;-66
2023/06/01 02:32:48;;;;;;;5.60;5.15;;;;;;;11.44;100.00;96050.34;5115747;27;20027;-66
2023/06/01 02:35:14;;;;;;;6.30;5.38;;;;;;;11.45;100.00;96050.22;5118733;27;20027;-66
2023/06/01 02:37:39;;;;;;;6.28;5.78;;;;;;;11.42;100.00;96047.88;5138981;27;20429;-66
2023/06/01 02:40:10;;;;;;;5.78;5.38;;;;;;;11.39;100.00;96050.78;5124440;27;20027;-66
2023/06/01 02:42:36;;;;;;;8.10;5.30;;;;;;;11.39;100.00;96042.88;5128918;27;20033;-66
2023/06/01 02:45:04;;;;;;;6.10;5.70;;;;;;;11.29;100.00;96042.88;5119035;27;20103;-65
2023/06/01 02:47:29;;;;;;;6.65;5.57;;;;;;;11.34;100.00;96045.09;5127887;27;20046;-66
2023/06/01 02:49:54;;;;;;;9.15;5.88;;;;;;;11.35;100.00;96049.38;5123403;27;20033;-66
2023/06/01 02:52:20;;;;;;;6.90;6.10;;;;;;;11.35;100.00;96051.19;5116268;27;20096;-66
2023/06/01 02:54:46;;;;;;;8.05;5.63;;;;;;;11.40;100.00;96051.63;5117634;27;20047;-66
2023/06/01 02:57:11;;;;;;;6.38;5.88;;;;;;;11.40;100.00;96057.72;5120579;27;20082;-66
2023/06/01 02:59:36;;;;;;;6.47;5.97;;;;;;;11.34;100.00;96055.63;5126723;27;20046;-66
2023/06/01 03:02:02;;;;;;;7.00;6.38;;;;;;;11.27;100.00;96059.78;5124052;27;20556;-66
2023/06/01 03:04:28;;;;;;;6.35;5.90;;;;;;;11.21;100.00;96066.44;5116826;27;20038;-66
2023/06/01 03:06:54;;;;;;;6.78;6.20;;;;;;;11.23;100.00;96064.50;5130935;27;20042;-65
2023/06/01 03:09:19;;;;;;;6.40;5.93;;;;;;;11.23;100.00;96066.31;5121918;27;20047;-65
2023/06/01 03:11:45;;;;;;;5.95;5.43;;;;;;;11.22;100.00;96072.56;5120231;27;20023;-65
2023/06/01 03:14:10;;;;;;;6.07;5.47;;;;;;;11.16;100.00;96068.66;5124771;27;20023;-64
2023/06/01 03:16:36;;;;;;;6.63;6.03;;;;;;;11.10;100.00;96075.28;5120952;27;20058;-65
2023/06/01 03:19:01;;;;;;;7.32;6.28;;;;;;;11.03;100.00;96082.91;5121341;27;20040;-66
2023/06/01 03:21:27;;;;;;;6.88;6.07;;;;;;;10.97;100.00;96077.38;5121255;28;20024;-66
2023/06/01 03:23:53;;;;;;;6.35;5.75;;;;;;;10.97;100.00;96085.28;5120983;28;20027;-66
2023/06/01 03:26:20;;;;;;;7.47;6.43;;;;;;;10.93;100.00;96089.97;5120455;27;20106;-66
2023/06/01 03:28:46;;;;;;;6.32;5.80;;;;;;;10.92;100.00;96088.28;5123508;28;20419;-65
2023/06/01 03:31:12;;;;;;;6.53;5.93;;;;;;;10.89;100.00;96092.03;5120833;27;20019;-65
2023/06/01 03:33:37;;;;;;;7.30;6.63;;;;;;;10.86;100.00;96099.38;5117054;28;20031;-66
2023/06/01 03:36:04;;;;;;;6.05;5.55;;;;;;;10.80;100.00;96100.72;5114075;28;20044;-65
2023/06/01 03:38:30;;;;;;;6.47;5.95;;;;;;;10.83;100.00;96118.06;5130803;27;20031;-65
2023/06/01 03:40:55;;;;;;;6.80;6.03;;;;;;;10.79;100.00;96109.59;5123137;28;20381;-65
2023/06/01 03:43:21;;;;;;;6.10;5.60;;;;;;;10.78;100.00;96113.22;5115851;28;20111;-65
2023/06/01 03:45:46;;;;;;;6.05;5.57;;;;;;;10.79;100.00;96116.66;5123060;27;20043;-65
2023/06/01 03:48:11;;;;;;;6.32;5.82;;;;;;;10.77;100.00;96123.84;5126685;27;20460;-65
2023/06/01 03:50:37;;;;;;;6.85;6.20;;;;;;;10.77;100.00;96127.34;5123960;27;20027;-65
2023/06/01 03:53:02;;;;;;;9.90;6.20;;;;;;;10.83;100.00;96137.34;5116449;28;20038;-65
2023/06/01 03:55:29;;;;;;;7.40;6.38;;;;;;;10.82;100.00;96135.66;5122377;27;20490;-66
2023/06/01 03:57:55;;;;;;;6.13;5.55;;;;;;;10.79;100.00;96140.38;5119052;28;20692;-66
2023/06/01 04:00:22;;;;;;;7.20;6.07;;;;;;;10.81;100.00;96141.91;5123624;28;20497;-65
2023/06/01 04:02:56;;;;;;;6.95;6.35;;;;;;;10.82;100.00;96146.22;5120879;28;20038;-66
2023/06/01 04:05:23;;;;;;;6.40;5.80;;;;;;;10.83;100.00;96145.25;5117716;28;20023;-66
2023/06/01 04:07:50;;;;;;;6.93;6.40;;;;;;;10.86;100.00;96158.13;5130858;27;20015;-66
2023/06/01 04:10:16;;;;;;;6.57;5.97;;;;;;;10.86;100.00;96160.78;5125488;28;20084;-65
2023/06/01 04:12:43;;;;;;;8.85;6.40;;;;;;;10.87;100.00;96169.53;5122185;28;20023;-65
2023/06/01 04:15:10;;;;;;;7.18;6.20;;;;;;;10.89;100.00;96168.41;5114609;28;20051;-66
2023/06/01 04:17:41;;;;;;;6.63;6.13;;;;;;;10.89;100.00;96173.69;5120664;28;20034;-66
2023/06/01 04:20:09;;;;;;;7.10;6.53;;;;;;;10.88;100.00;96171.19;5123011;27;20036;-66
2023/06/01 04:22:35;;;;;;;7.18;6.53;;;;;;;10.93;100.00;96176.03;5113611;28;20034;-66
2023/06/01 04:25:01;;;;;;;6.50;5.90;;;;;;;10.94;100.00;96180.34;5123627;28;20092;-66
2023/06/01 04:27:27;;;;;;;8.23;7.40;;;;;;;10.96;100.00;96188.97;5119934;27;20035;-65
2023/06/01 04:29:53;;;;;;;7.55;6.88;;;;;;;10.97;100.00;96180.94;5120625;27;20073;-65
2023/06/01 04:32:21;;;;;;;7.60;6.85;;;;;;;11.01;100.00;96186.78;5125155;27;20015;-65
2023/06/01 04:34:50;;;;;;;10.05;9.05;;;;;;;11.00;100.00;96188.56;5120592;27;20020;-66
2023/06/01 04:37:19;;;;;;;7.53;6.88;;;;;;;11.04;100.00;96197.03;5131954;27;20019;-65
2023/06/01 04:39:48;;;;;;;7.20;6.60;;;;;;;11.04;100.00;96202.31;5125171;27;20023;-65
2023/06/01 04:42:16;;;;;;;6.90;6.30;;;;;;;11.10;100.00;96206.22;5137858;27;20023;-66
2023/06/01 04:44:42;;;;;;;12.55;7.20;;;;;;;11.11;100.00;96213.97;5122276;27;20026;-65
2023/06/01 04:47:08;;;;;;;14.13;7.32;;;;;;;11.17;100.00;96217.91;5129601;27;20048;-65
2023/06/01 04:49:36;;;;;;;11.32;7.47;;;;;;;11.24;100.00;96223.47;5147887;27;20027;-65
2023/06/01 04:52:02;;;;;;;11.68;6.32;;;;;;;11.26;100.00;96222.34;5122614;27;20517;-65
2023/06/01 04:54:27;;;;;;;9.13;6.35;;;;;;;11.29;100.00;96232.66;5119830;27;20031;-66
2023/06/01 04:56:53;;;;;;;10.98;7.20;;;;;;;11.23;100.00;96227.06;5138080;27;20027;-66
2023/06/01 04:59:18;;;;;;;7.60;6.50;;;;;;;11.24;100.00;96228.75;5134624;27;20456;-65
2023/06/01 05:01:43;;;;;;;8.45;6.78;;;;;;;11.27;100.00;96236.38;5124844;27;20058;-66
2023/06/01 05:04:10;;;;;;;8.88;6.65;;;;;;;11.26;100.00;96234.72;5128984;27;20096;-65
2023/06/01 05:06:35;;;;;;;11.70;6.47;;;;;;;11.34;100.00;96232.25;5130803;27;20444;-65
2023/06/01 05:09:01;;;;;;;11.32;6.75;;;;;;;11.49;100.00;96231.88;5106511;27;20027;-66
2023/06/01 05:11:26;;;;;;;10.38;6.68;;;;;;;11.55;100.00;96239.25;5133567;27;20157;-65
2023/06/01 05:13:52;;;;;;;6.85;6.25;;;;;;;11.65;100.00;96237.47;5123802;27;20095;-66
2023/06/01 05:16:18;;;;;;;8.18;6.75;;;;;;;11.71;100.00;96226.38;5121748;27;20078;-66
2023/06/01 05:18:43;;;;;;;8.80;6.35;;;;;;;11.67;100.00;96225.00;5117736;27;20072;-66
2023/06/01 05:21:08;;;;;;;6.93;6.30;;;;;;;11.75;100.00;96238.31;5127469;27;20027;-66
2023/06/01 05:23:34;;;;;;;6.32;5.78;;;;;;;11.90;100.00;96240.59;5124671;27;20027;-66
2023/06/01 05:26:01;;;;;;;6.53;6.03;;;;;;;12.02;100.00;96242.13;5118201;27;20020;-66
2023/06/01 05:28:32;;;;;;;7.00;6.35;;;;;;;12.14;100.00;96234.91;5118288;27;20034;-66
2023/06/01 05:30:58;;;;;;;6.63;5.97;;;;;;;12.21;100.00;96237.84;5129181;27;20033;-66
2023/06/01 05:33:24;;;;;;;6.40;5.60;;;;;;;12.30;100.00;96239.66;5128112;27;20086;-66
2023/06/01 05:35:49;;;;;;;7.13;6.30;;;;;;;12.37;100.00;96245.19;5124472;27;20695;-67
2023/06/01 05:38:15;;;;;;;6.68;6.00;;;;;;;12.47;100.00;96237.28;5126061;27;20039;-66
2023/06/01 05:40:40;;;;;;;6.88;5.82;;;;;;;12.59;100.00;96245.88;5123475;27;20031;-67
2023/06/01 05:43:08;;;;;;;7.22;5.95;;;;;;;12.70;100.00;96236.97;5125638;27;20022;-66
2023/06/01 05:45:34;;;;;;;5.78;5.03;;;;;;;12.87;100.00;96243.34;5117840;27;20076;-66
2023/06/01 05:47:59;;;;;;;6.78;6.18;;;;;;;13.01;100.00;96239.41;5119804;27;20032;-66
2023/06/01 05:50:25;;;;;;;7.30;6.35;;;;;;;13.15;100.00;96232.81;5117766;27;20023;-65
2023/06/01 05:52:51;;;;;;;7.80;7.00;;;;;;;13.31;100.00;96229.56;5125692;27;20028;-66
2023/06/01 05:55:16;;;;;;;8.40;7.70;;;;;;;13.43;100.00;96231.06;5134398;27;20086;-67
2023/06/01 05:57:41;;;;;;;11.25;8.30;;;;;;;13.57;100.00;96228.91;5119143;27;20031;-68
2023/06/01 06:00:12;;;;;;;11.07;8.27;;;;;;;13.68;100.00;96230.53;5118659;27;20391;-71
2023/06/01 06:02:38;;;;;;;10.30;7.57;;;;;;;13.76;100.00;96217.41;5117454;27;20027;-69
2023/06/01 06:05:04;;;;;;;6.35;5.75;;;;;;;13.90;100.00;96213.41;5118919;27;20043;-70
2023/06/01 06:07:30;;;;;;;6.18;5.57;;;;;;;13.99;100.00;96206.38;5135211;27;20023;-65
2023/06/01 06:09:55;;;;;;;6.47;5.40;;;;;;;14.09;100.00;96196.53;5120250;27;20038;-65
2023/06/01 06:12:21;;;;;;;6.28;5.68;;;;;;;14.16;100.00;96194.13;5126086;27;20035;-67
2023/06/01 06:14:48;;;;;;;6.20;5.70;;;;;;;14.18;100.00;96179.75;5130524;27;20035;-67
2023/06/01 06:17:14;;;;;;;6.25;5.68;;;;;;;14.27;100.00;96183.31;5126653;27;20027;-67
2023/06/01 06:19:40;;;;;;;7.82;5.45;;;;;;;14.41;100.00;96181.06;5120056;27;20484;-67
2023/06/01 06:22:05;;;;;;;6.45;5.93;;;;;;;14.65;100.00;96195.47;5120918;27;20028;-67
2023/06/01 06:24:30;;;;;;;6.05;5.45;;;;;;;14.83;100.00;96195.50;5119019;27;20395;-66
2023/06/01 06:26:56;;;;;;;5.68;5.18;;;;;;;15.15;100.00;96186.88;5115205;28;20028;-66
2023/06/01 06:29:21;;;;;;;5.63;5.13;;;;;;;15.43;100.00;96181.34;5122532;27;20038;-66
2023/06/01 06:31:48;;;;;;;5.97;5.47;;;;;;;15.44;100.00;96183.00;5120667;27;20515;-66
2023/06/01 06:34:14;;;;;;;6.82;5.45;;;;;;;15.46;100.00;96186.34;5117810;27;20028;-66
2023/06/01 06:36:39;;;;;;;5.63;5.13;;;;;;;15.50;100.00;96170.09;5121863;27;20034;-66
2023/06/01 06:39:05;;;;;;;6.55;5.25;;;;;;;15.87;100.00;96176.81;5132281;27;20377;-66
2023/06/01 06:41:30;;;;;;;5.30;4.90;;;;;;;16.25;100.00;96181.69;5127747;27;20480;-67
2023/06/01 06:43:57;;;;;;;6.97;5.47;;;;;;;16.53;100.00;96168.91;5122292;27;20042;-66
2023/06/01 06:46:23;;;;;;;6.68;5.00;;;;;;;16.82;100.00;96153.41;5130506;27;20446;-66
2023/06/01 06:48:48;;;;;;;5.60;5.05;;;;;;;17.13;100.00;96152.69;5121416;27;20049;-65
2023/06/01 06:51:13;;;;;;;5.75;5.25;;;;;;;17.38;100.00;96142.78;5126202;27;20027;-64
2023/06/01 06:53:39;;;;;;;5.28;4.78;;;;;;;17.83;100.00;96139.53;5129586;27;20101;-66
2023/06/01 06:56:04;;;;;;;5.63;5.22;;;;;;;18.17;100.00;96130.31;5120565;27;20140;-65
2023/06/01 06:58:30;;;;;;;9.10;5.38;;;;;;;18.35;100.00;96135.34;5123150;27;20079;-65
2023/06/01 07:00:55;;;;;;;5.18;4.80;;;;;;;18.36;100.00;96115.69;5118576;27;20084;-65
2023/06/01 07:03:21;;;;;;;7.78;4.80;;;;;;;18.55;100.00;96122.31;5114561;28;20536;-65
2023/06/01 07:05:47;;;;;;;6.18;5.57;;;;;;;18.73;100.00;96116.63;5118337;27;20526;-65
2023/06/01 07:08:13;;;;;;;6.18;4.85;;;;;;;18.89;100.00;96122.81;5121318;27;20110;-65
2023/06/01 07:10:38;;;;;;;6.20;5.60;;;;;;;19.13;100.00;96120.88;5102792;27;20073;-65
2023/06/01 07:13:03;;;;;;;5.20;4.80;;;;;;;19.33;100.00;96116.63;5123771;27;20023;-65
2023/06/01 07:15:29;;;;;;;5.35;4.97;;;;;;;19.58;100.00;96112.81;5116857;27;20031;-65
2023/06/01 07:17:55;;;;;;;5.35;4.95;;;;;;;19.33;100.00;96103.28;5128736;27;20102;-65
2023/06/01 07:20:20;;;;;;;5.28;4.75;;;;;;;19.59;100.00;96114.47;5118679;27;20049;-65
2023/06/01 07:22:45;;;;;;;5.25;4.75;;;;;;;19.58;100.00;96113.63;5115864;27;20102;-65
2023/06/01 07:25:13;;;;;;;7.68;4.85;;;;;;;19.74;100.00;96117.09;5126126;27;20098;-65
2023/06/01 07:27:42;;;;;;;6.30;4.65;;;;;;;20.00;100.00;96116.53;5114710;28;20546;-65
2023/06/01 07:30:10;;;;;;;5.30;4.82;;;;;;;20.15;100.00;96110.31;5114675;27;20397;-64
2023/06/01 07:32:36;;;;;;;4.97;4.57;;;;;;;20.31;100.00;96093.16;5125709;28;20023;-65
2023/06/01 07:35:01;;;;;;;5.47;4.35;;;;;;;20.66;100.00;96100.41;5119891;28;20026;-66
2023/06/01 07:37:27;;;;;;;5.28;4.78;;;;;;;20.56;100.00;96098.09;5138362;27;20031;-64
2023/06/01 07:39:55;;;;;;;4.60;4.20;;;;;;;20.85;100.00;96086.34;5117294;27;20035;-65
2023/06/01 07:42:21;;;;;;;7.60;5.25;;;;;;;20.50;100.00;96072.97;5118305;27;20027;-65
2023/06/01 07:44:47;;;;;;;7.45;4.45;;;;;;;20.72;100.00;96083.59;5126249;28;20012;-65
2023/06/01 07:47:12;;;;;;;5.75;4.32;;;;;;;21.14;100.00;96089.81;5123440;27;20055;-64
2023/06/01 07:49:38;;;;;;;8.43;4.93;;;;;;;21.08;100.00;96085.22;5119328;28;20390;-65
2023/06/01 07:52:05;;;;;;;4.65;4.25;;;;;;;21.02;100.00;96067.31;5130270;27;20038;-65
2023/06/01 07:54:31;;;;;;;7.70;4.50;;;;;;;20.25;100.00;96075.22;5119490;27;20184;-65
2023/06/01 07:56:56;;;;;;;5.20;4.80;;;;;;;19.66;100.00;96085.16;5121739;28;20181;-66
2023/06/01 07:59:23;;;;;;;4.72;4.25;;;;;;;18.98;100.00;96088.84;5123580;28;20019;-66
2023/06/01 08:01:50;;;;;;;5.20;4.80;;;;;;;19.01;100.00;96100.03;5117253;27;20073;-65
2023/06/01 08:04:16;;;;;;;5.07;4.68;;;;;;;18.70;100.00;96114.31;5128350;27;20594;-66
2023/06/01 08:06:43;;;;;;;5.15;4.75;;;;;;;18.98;100.00;96102.19;5131595;27;20022;-65
2023/06/01 08:09:10;;;;;;;4.97;4.60;;;;;;;18.51;100.00;96106.84;5119360;27;20121;-65
2023/06/01 08:11:35;;;;;;;5.03;4.55;;;;;;;18.58;100.00;96123.81;5123541;27;20027;-65
2023/06/01 08:14:02;;;;;;;5.65;5.25;;;;;;;18.66;100.00;96106.88;5132642;27;20034;-65
2023/06/01 08:16:29;;;;;;;5.25;4.75;;;;;;;19.43;100.00;96105.66;5128144;27;20041;-65
2023/06/01 08:18:56;;;;;;;5.22;4.75;;;;;;;20.15;100.00;96081.75;5127370;27;20030;-65
2023/06/01 08:21:23;;;;;;;5.30;4.80;;;;;;;21.05;100.00;96074.94;5119996;27;20035;-65
2023/06/01 08:23:51;;;;;;;5.10;4.70;;;;;;;21.46;100.00;96058.00;5129201;27;20034;-65
2023/06/01 08:26:16;;;;;;;6.93;5.07;;;;;;;21.61;100.00;96063.19;5128935;27;20077;-68
2023/06/01 08:28:43;;;;;;;5.35;4.63;;;;;;;21.67;100.00;96050.06;5132569;27;20023;-71
2023/06/01 08:31:08;;;;;;;4.82;4.43;;;;;;;22.10;100.00;96032.75;5125308;27;20030;-69
2023/06/01 08:33:33;;;;;;;4.93;4.45;;;;;;;22.15;100.00;96024.91;5127119;27;20036;-68
2023/06/01 08:35:59;;;;;;;4.70;4.30;;;;;;;22.40;100.00;96048.41;5123113;27;20032;-69
2023/06/01 08:38:29;;;;;;;4.97;4.50;;;;;;;21.76;100.00;96013.97;5130841;27;20027;-68
2023/06/01 08:40:56;;;;;;;4.60;4.25;;;;;;;21.63;100.00;96014.75;5130904;27;20028;-69
2023/06/01 08:43:31;;;;;;;4.32;4.03;;;;;;;22.38;100.00;96037.06;5109933;27;20023;-69
2023/06/01 08:45:58;;;;;;;7.05;4.45;;;;;;;22.64;100.00;96021.97;5130621;27;20015;-71
2023/06/01 08:48:23;;;;;;;6.60;4.15;;;;;;;22.97;100.00;96018.38;5129389;27;20037;-69
2023/06/01 08:50:50;;;;;;;4.15;3.95;;;;;;;22.89;100.00;96006.00;5133940;27;20113;-68
2023/06/01 08:53:21;;;;;;;5.00;4.53;;;;;;;23.64;100.00;95983.13;5122323;27;20023;-67
2023/06/01 08:55:54;;;;;;;4.68;4.28;;;;;;;22.98;100.00;95995.88;5126519;27;20038;-69
2023/06/01 08:58:20;;;;;;;4.70;4.30;;;;;;;23.22;100.00;95975.50;5130845;27;20034;-71
2023/06/01 09:00:50;;;;;;;4.63;4.22;;;;;;;22.53;100.00;95983.19;5123378;27;20023;-72
2023/06/01 09:03:15;;;;;;;5.18;4.68;;;;;;;22.28;100.00;95987.38;5127502;27;20051;-72
2023/06/01 09:05:41;;;;;;;6.85;4.65;;;;;;;22.25;100.00;95986.94;5124104;27;20061;-71
2023/06/01 09:08:07;;;;;;;4.97;4.50;;;;;;;22.10;100.00;95993.34;5132244;27;20051;-72
2023/06/01 09:10:33;;;;;;;4.78;4.47;;;;;;;23.16;100.00;95996.00;5129859;27;20023;-72
2023/06/01 09:13:00;;;;;;;4.78;4.38;;;;;;;22.81;100.00;95987.47;5128606;27;20034;-71
2023/06/01 09:15:25;;;;;;;7.05;4.85;;;;;;;23.29;100.00;95970.13;5130001;27;20055;-72
2023/06/01 09:18:03;;;;;;;6.38;4.72;;;;;;;23.50;100.00;95960.06;5123976;27;20276;-73
2023/06/01 09:20:29;;;;;;;5.55;5.00;;;;;;;23.81;100.00;95953.03;5123899;27;20036;-72
2023/06/01 09:22:55;;;;;;;7.40;4.60;;;;;;;23.82;100.00;95949.28;5126278;27;20493;-71
2023/06/01 09:25:26;;;;;;;4.80;4.38;;;;;;;23.31;100.00;95942.00;5126981;27;20138;-71
2023/06/01 09:27:53;;;;;;;5.15;4.68;;;;;;;23.62;100.00;95950.28;5125764;27;20038;-71
2023/06/01 09:30:24;;;;;;;5.10;4.60;;;;;;;23.01;100.00;95949.78;5128372;27;20052;-72
2023/06/01 09:32:50;;;;;;;4.47;4.07;;;;;;;23.07;100.00;95953.50;5130115;27;20376;-72
2023/06/01 09:35:45;;;;;;;4.60;4.30;;;;;;;23.95;100.00;95932.22;5126744;27;20028;-71
2023/06/01 09:38:11;;;;;;;5.07;4.65;;;;;;;24.05;100.00;95935.25;5129166;27;20031;-72
2023/06/01 09:40:39;;;;;;;4.72;4.32;;;;;;;24.57;100.00;95908.00;5120714;27;20063;-73
2023/06/01 09:43:20;;;;;;;5.40;4.47;;;;;;;24.15;100.00;95924.81;5121069;27;20031;-72
2023/06/01 09:46:04;;;;;;;4.88;4.47;;;;;;;24.29;100.00;95930.88;5131006;27;20605;-72
2023/06/01 09:48:30;;;;;;;5.50;4.35;;;;;;;24.48;100.00;95932.75;5127180;27;20020;-71
2023/06/01 09:50:56;;;;;;;5.05;4.35;;;;;;;24.83;100.00;95914.13;5124063;27;20456;-71
2023/06/01 09:53:21;;;;;;;5.35;4.90;;;;;;;24.77;100.00;95892.69;5124715;27;20027;-72
2023/06/01 09:55:58;;;;;;;6.18;4.75;;;;;;;24.00;100.00;95916.25;5124403;27;20234;-70
2023/06/01 09:58:23;;;;;;;5.10;4.60;;;;;;;24.57;100.00;95912.56;5119745;27;20024;-73
2023/06/01 10:00:50;;;;;;;6.60;5.05;;;;;;;24.64;100.00;95913.31;5123292;27;20032;-73
2023/06/01 10:03:17;;;;;;;8.20;5.53;;;;;;;24.88;100.00;95922.34;5127682;27;20387;-73
2023/06/01 10:05:43;;;;;;;6.50;5.82;;;;;;;24.63;100.00;95902.75;5131369;27;20540;-71
2023/06/01 10:08:12;;;;;;;7.05;6.18;;;;;;;24.42;100.00;95907.53;5123089;27;20024;-72
2023/06/01 10:10:38;;;;;;;6.32;5.70;;;;;;;24.85;100.00;95895.88;5125487;27;20042;-72
2023/06/01 10:13:03;;;;;;;7.05;5.30;;;;;;;25.19;100.00;95903.47;5122328;27;20065;-71
2023/06/01 10:15:29;;;;;;;6.03;5.00;;;;;;;25.10;100.00;95880.63;5121755;27;20500;-72
2023/06/01 10:17:55;;;;;;;5.82;5.00;;;;;;;24.88;100.00;95927.75;5123554;27;20599;-72
2023/06/01 10:20:21;;;;;;;5.57;4.95;;;;;;;24.65;100.00;95885.34;5122886;27;20326;-72
2023/06/01 10:22:48;;;;;;;5.07;4.68;;;;;;;25.55;100.00;95882.06;5121025;27;20117;-72
2023/06/01 10:25:18;;;;;;;5.40;4.90;;;;;;;25.26;100.00;95868.38;5127365;27;20516;-72
2023/06/01 10:27:55;;;;;;;6.15;4.60;;;;;;;25.53;100.00;95866.09;5120385;27;20102;-73
2023/06/01 10:30:21;;;;;;;6.10;4.53;;;;;;;25.54;100.00;95858.84;5132136;27;20168;-73
2023/06/01 10:32:48;;;;;;;5.25;4.75;;;;;;;26.03;100.00;95863.97;5126047;27;20115;-72
2023/06/01 10:35:25;;;;;;;5.40;4.50;;;;;;;26.09;100.00;95864.94;5127950;27;20034;-71
2023/06/01 10:38:06;;;;;;;4.70;4.32;;;;;;;26.29;100.00;95843.81;5137569;27;20023;-72
2023/06/01 10:40:42;;;;;;;4.43;4.03;;;;;;;26.74;100.00;95846.84;5123267;27;20035;-72
2023/06/01 10:43:28;;;;;;;4.57;4.18;;;;;;;26.46;100.00;95834.97;5121779;27;20039;-72
2023/06/01 10:45:53;;;;;;;5.00;4.70;;;;;;;25.29;100.00;95836.41;5123264;27;20626;-73
2023/06/01 10:48:55;;;;;;;5.20;4.80;;;;;;;24.12;100.00;95862.56;5128178;27;20110;-73
2023/06/01 10:51:22;;;;;;;4.28;3.97;;;;;;;23.78;100.00;95873.63;5122319;27;20019;-72
2023/06/01 10:53:47;;;;;;;4.47;4.18;;;;;;;23.44;100.00;95887.38;5124964;27;20411;-74
2023/06/01 10:56:27;;;;;;;4.57;4.22;;;;;;;23.28;100.00;95885.22;5126652;27;20332;-73
2023/06/01 10:59:07;;;;;;;5.03;4.70;;;;;;;23.04;100.00;95903.72;5121171;27;20065;-73
2023/06/01 11:01:42;;;;;;;4.95;4.55;;;;;;;22.96;100.00;95886.00;5127398;27;20047;-73
2023/06/01 11:04:08;;;;;;;5.50;5.00;;;;;;;22.91;100.00;95887.72;5127837;27;20038;-73
2023/06/01 11:06:40;;;;;;;4.93;4.53;;;;;;;22.91;100.00;95895.75;5124399;27;20020;-70
2023/06/01 11:09:08;;;;;;;5.40;4.90;;;;;;;22.66;100.00;95896.47;5125124;27;20023;-72
2023/06/01 11:11:52;;;;;;;5.20;4.68;;;;;;;22.56;100.00;95908.50;5130434;27;20107;-71
2023/06/01 11:14:30;;;;;;;5.00;4.68;;;;;;;22.43;100.00;95909.34;5120023;27;20020;-71
2023/06/01 11:17:18;;;;;;;4.82;4.50;;;;;;;22.41;100.00;95910.59;5128370;27;20050;-70
2023/06/01 11:19:43;;;;;;;5.68;4.88;;;;;;;22.37;100.00;95896.78;5125416;27;20027;-73
2023/06/01 11:22:10;;;;;;;5.50;5.07;;;;;;;22.57;100.00;95886.00;5124583;27;20034;-69
2023/06/01 11:24:36;;;;;;;6.15;5.22;;;;;;;22.80;100.00;95867.75;5118479;27;20039;-69
2023/06/01 11:27:10;;;;;;;5.07;4.57;;;;;;;22.81;100.00;95848.72;5123466;27;20039;-69